createdAt,value
2023-04-15T00:00:07.259Z,4.60
2023-04-15T00:02:20.242Z,4.88
2023-04-15T00:04:25.919Z,5.32
2023-04-15T00:06:31.267Z,5.18
2023-04-15T00:08:36.509Z,5.78
2023-04-15T00:10:46.694Z,5.43
2023-04-15T00:12:52.886Z,5.88
2023-04-15T00:14:59.058Z,5.32
2023-04-15T00:17:04.669Z,5.78
2023-04-15T00:19:09.820Z,5.03
2023-04-15T00:21:14.830Z,5.40
2023-04-15T00:23:19.846Z,6.53
2023-04-15T00:25:25.086Z,5.25
2023-04-15T00:27:33.647Z,5.53
2023-04-15T00:29:38.690Z,5.75
2023-04-15T00:31:44.138Z,6.50
2023-04-15T00:33:49.624Z,6.68
2023-04-15T00:35:54.637Z,6.10
2023-04-15T00:37:59.938Z,6.15
2023-04-15T00:40:05.770Z,6.45
2023-04-15T00:42:12.394Z,6.55
2023-04-15T00:44:21.413Z,6.32
2023-04-15T00:46:27.114Z,6.32
2023-04-15T00:48:32.868Z,6.18
2023-04-15T00:50:38.113Z,6.22
2023-04-15T00:52:43.808Z,7.22
2023-04-15T00:54:48.921Z,6.28
2023-04-15T00:56:54.025Z,6.75
2023-04-15T00:58:59.815Z,6.82
2023-04-15T01:01:08.024Z,6.18
2023-04-15T01:03:13.427Z,6.53
2023-04-15T01:05:19.906Z,6.30
2023-04-15T01:07:25.147Z,6.85
2023-04-15T01:09:30.329Z,6.60
2023-04-15T01:11:36.493Z,6.68
2023-04-15T01:13:41.884Z,6.75
2023-04-15T01:15:47.128Z,7.00
2023-04-15T01:17:54.978Z,6.82
2023-04-15T01:20:00.875Z,6.65
2023-04-15T01:22:08.802Z,6.60
2023-04-15T01:24:21.407Z,7.20
2023-04-15T01:26:30.900Z,6.03
2023-04-15T01:28:36.243Z,7.70
2023-04-15T01:30:43.109Z,7.20
2023-04-15T01:32:48.180Z,7.32
2023-04-15T01:34:53.211Z,6.97
2023-04-15T01:37:01.576Z,6.60
2023-04-15T01:39:07.696Z,6.78
2023-04-15T01:41:12.714Z,6.78
2023-04-15T01:43:20.588Z,7.13
2023-04-15T01:45:25.940Z,7.07
2023-04-15T01:47:31.369Z,6.72
2023-04-15T01:49:37.563Z,6.80
2023-04-15T01:51:42.683Z,6.93
2023-04-15T01:53:48.638Z,6.18
2023-04-15T01:55:54.223Z,6.68
2023-04-15T01:58:00.165Z,6.53
2023-04-15T02:00:09.944Z,6.18
2023-04-15T02:02:20.733Z,5.97
2023-04-15T02:04:26.307Z,6.32
2023-04-15T02:06:32.201Z,6.03
2023-04-15T02:08:37.679Z,7.03
2023-04-15T02:10:45.811Z,7.78
2023-04-15T02:12:51.160Z,7.07
2023-04-15T02:14:57.130Z,6.80
2023-04-15T02:17:07.584Z,7.40
2023-04-15T02:19:13.120Z,7.93
2023-04-15T02:21:19.090Z,7.60
2023-04-15T02:23:24.492Z,7.10
2023-04-15T02:25:29.879Z,6.63
2023-04-15T02:27:35.152Z,6.53
2023-04-15T02:29:40.469Z,6.43
2023-04-15T02:31:46.327Z,6.93
2023-04-15T02:33:54.379Z,6.60
2023-04-15T02:35:59.450Z,6.93
2023-04-15T02:38:04.745Z,7.30
2023-04-15T02:40:13.636Z,6.15
2023-04-15T02:42:18.871Z,6.20
2023-04-15T02:44:25.456Z,5.80
2023-04-15T02:46:35.344Z,6.55
2023-04-15T02:48:40.869Z,6.75
2023-04-15T02:50:49.800Z,6.47
2023-04-15T02:52:55.554Z,5.93
2023-04-15T02:55:02.685Z,6.60
2023-04-15T02:57:08.973Z,7.88
2023-04-15T02:59:15.487Z,6.40
2023-04-15T03:01:20.778Z,7.25
2023-04-15T03:03:27.006Z,6.90
2023-04-15T03:05:32.784Z,8.20
2023-04-15T03:07:42.481Z,7.50
2023-04-15T03:09:49.106Z,6.80
2023-04-15T03:11:54.935Z,5.78
2023-04-15T03:14:01.275Z,7.32
2023-04-15T03:16:12.061Z,7.10
2023-04-15T03:18:17.214Z,6.95
2023-04-15T03:20:24.053Z,7.43
2023-04-15T03:22:30.154Z,6.82
2023-04-15T03:24:37.805Z,6.97
2023-04-15T03:26:42.893Z,6.68
2023-04-15T03:28:51.176Z,6.80
2023-04-15T03:30:57.423Z,6.40
2023-04-15T03:33:02.694Z,7.78
2023-04-15T03:35:09.783Z,6.90
2023-04-15T03:37:14.796Z,6.20
2023-04-15T03:39:19.877Z,6.32
2023-04-15T03:41:27.486Z,6.65
2023-04-15T03:43:32.776Z,6.13
2023-04-15T03:45:37.942Z,6.03
2023-04-15T03:47:43.167Z,6.25
2023-04-15T03:49:48.182Z,5.80
2023-04-15T03:51:53.204Z,5.57
2023-04-15T03:53:58.878Z,6.03
2023-04-15T03:56:03.896Z,5.95
2023-04-15T03:58:13.083Z,5.80
2023-04-15T04:00:18.778Z,6.45
2023-04-15T04:02:24.060Z,5.57
2023-04-15T04:04:29.276Z,6.10
2023-04-15T04:06:34.627Z,6.00
2023-04-15T04:08:39.697Z,6.20
2023-04-15T04:10:45.156Z,6.78
2023-04-15T04:12:50.734Z,7.05
2023-04-15T04:14:58.306Z,6.63
2023-04-15T04:17:03.898Z,5.65
2023-04-15T04:19:08.908Z,5.60
2023-04-15T04:21:14.555Z,5.70
2023-04-15T04:23:20.077Z,6.28
2023-04-15T04:25:25.968Z,6.35
2023-04-15T04:27:31.665Z,5.22
2023-04-15T04:29:37.021Z,6.53
2023-04-15T04:31:44.824Z,6.13
2023-04-15T04:33:50.153Z,6.45
2023-04-15T04:35:55.190Z,6.80
2023-04-15T04:38:00.464Z,6.97
2023-04-15T04:40:05.522Z,7.07
2023-04-15T04:42:11.170Z,6.25
2023-04-15T04:44:16.165Z,7.40
2023-04-15T04:46:21.866Z,7.60
2023-04-15T04:48:29.889Z,7.57
2023-04-15T04:50:35.501Z,7.57
2023-04-15T04:52:41.522Z,8.25
2023-04-15T04:54:47.472Z,7.38
2023-04-15T04:56:52.486Z,8.95
2023-04-15T04:58:57.476Z,8.18
2023-04-15T05:01:03.185Z,8.18
2023-04-15T05:03:08.944Z,8.63
2023-04-15T05:05:16.733Z,8.27
2023-04-15T05:07:22.343Z,8.90
2023-04-15T05:09:27.347Z,8.57
2023-04-15T05:11:32.796Z,8.15
2023-04-15T05:13:38.829Z,7.75
2023-04-15T05:15:43.880Z,7.68
2023-04-15T05:17:48.990Z,7.78
2023-04-15T05:19:54.094Z,8.52
2023-04-15T05:22:01.773Z,7.55
2023-04-15T05:24:08.012Z,8.10
2023-04-15T05:26:13.108Z,8.45
2023-04-15T05:28:18.362Z,8.73
2023-04-15T05:30:23.411Z,8.25
2023-04-15T05:32:29.032Z,7.90
2023-04-15T05:34:34.090Z,9.50
2023-04-15T05:36:39.142Z,8.02
2023-04-15T05:38:46.827Z,9.18
2023-04-15T05:40:51.921Z,7.60
2023-04-15T05:42:57.998Z,7.82
2023-04-15T05:45:05.628Z,7.90
2023-04-15T05:47:11.112Z,8.20
2023-04-15T05:49:16.446Z,8.68
2023-04-15T05:51:21.550Z,8.02
2023-04-15T05:53:27.036Z,8.55
2023-04-15T05:55:34.672Z,8.02
2023-04-15T05:57:40.219Z,8.38
2023-04-15T05:59:45.304Z,8.23
2023-04-15T06:01:50.621Z,7.38
2023-04-15T06:03:55.939Z,7.57
2023-04-15T06:06:01.181Z,8.35
2023-04-15T06:08:06.847Z,7.22
2023-04-15T06:10:13.176Z,7.85
2023-04-15T06:12:21.044Z,7.10
2023-04-15T06:14:26.206Z,7.43
2023-04-15T06:16:31.389Z,7.32
2023-04-15T06:18:37.405Z,7.15
2023-04-15T06:20:42.449Z,6.72
2023-04-15T06:22:47.485Z,6.20
2023-04-15T06:24:53.200Z,6.22
2023-04-15T06:26:58.221Z,6.43
2023-04-15T06:29:05.937Z,6.75
2023-04-15T06:31:11.125Z,6.55
2023-04-15T06:33:16.598Z,6.57
2023-04-15T06:35:22.281Z,6.70
2023-04-15T06:37:27.525Z,6.25
2023-04-15T06:39:32.787Z,6.65
2023-04-15T06:41:37.872Z,6.60
2023-04-15T06:43:43.521Z,6.85
2023-04-15T06:45:51.156Z,6.70
2023-04-15T06:47:56.217Z,6.80
2023-04-15T06:50:01.328Z,6.90
2023-04-15T06:52:06.422Z,7.28
2023-04-15T06:54:11.908Z,8.07
2023-04-15T06:56:17.105Z,7.30
2023-04-15T06:58:22.403Z,7.90
2023-04-15T07:00:29.056Z,8.20
2023-04-15T07:02:36.977Z,7.80
2023-04-15T07:04:42.845Z,7.90
2023-04-15T07:06:47.929Z,8.60
2023-04-15T07:08:53.359Z,8.60
2023-04-15T07:10:58.409Z,8.18
2023-04-15T07:13:03.865Z,7.80
2023-04-15T07:15:11.171Z,9.40
2023-04-15T07:17:16.265Z,8.05
2023-04-15T07:19:24.562Z,9.75
2023-04-15T07:21:29.822Z,9.93
2023-04-15T07:23:34.858Z,10.23
2023-04-15T07:25:39.916Z,9.10
2023-04-15T07:27:44.918Z,9.30
2023-04-15T07:29:51.948Z,8.77
2023-04-15T07:31:57.330Z,9.77
2023-04-15T07:34:02.897Z,10.07
2023-04-15T07:36:10.697Z,11.50
2023-04-15T07:38:15.726Z,11.25
2023-04-15T07:40:22.527Z,12.20
2023-04-15T07:42:27.902Z,11.40
2023-04-15T07:44:33.484Z,12.02
2023-04-15T07:46:38.794Z,11.05
2023-04-15T07:48:44.098Z,12.40
2023-04-15T07:50:49.120Z,11.43
2023-04-15T07:52:57.514Z,11.35
2023-04-15T07:55:02.670Z,12.05
2023-04-15T07:57:08.075Z,11.73
2023-04-15T07:59:13.220Z,12.13
2023-04-15T08:01:18.252Z,12.50
2023-04-15T08:03:24.346Z,12.25
2023-04-15T08:05:29.726Z,12.43
2023-04-15T08:07:34.879Z,12.40
2023-04-15T08:09:42.599Z,12.85
2023-04-15T08:11:47.802Z,13.20
2023-04-15T08:13:52.839Z,13.18
2023-04-15T08:16:23.089Z,13.77
2023-04-15T08:18:28.130Z,13.40
2023-04-15T08:20:33.328Z,12.35
2023-04-15T08:22:38.340Z,13.00
2023-04-15T08:24:46.123Z,12.95
2023-04-15T08:26:51.315Z,12.52
2023-04-15T08:28:56.588Z,13.63
2023-04-15T08:31:01.908Z,13.43
2023-04-15T08:33:07.073Z,13.75
2023-04-15T08:35:12.595Z,12.75
2023-04-15T08:37:17.716Z,12.93
2023-04-15T08:39:22.917Z,13.35
2023-04-15T08:41:34.637Z,14.77
2023-04-15T08:43:49.505Z,14.57
2023-04-15T08:45:55.953Z,15.82
2023-04-15T08:48:01.596Z,14.00
2023-04-15T08:50:09.435Z,14.93
2023-04-15T08:52:14.999Z,15.20
2023-04-15T08:54:21.587Z,15.38
2023-04-15T08:56:33.862Z,14.05
2023-04-15T08:58:39.474Z,14.60
2023-04-15T09:00:46.284Z,15.32
2023-04-15T09:02:51.599Z,14.40
2023-04-15T09:04:56.903Z,14.38
2023-04-15T09:07:02.309Z,14.90
2023-04-15T09:09:08.340Z,13.15
2023-04-15T09:11:13.729Z,13.18
2023-04-15T09:13:22.124Z,12.77
2023-04-15T09:15:30.380Z,13.10
2023-04-15T09:17:37.305Z,13.77
2023-04-15T09:19:42.708Z,13.27
2023-04-15T09:21:51.306Z,10.82
2023-04-15T09:24:02.506Z,9.23
2023-04-15T09:26:09.226Z,9.15
2023-04-15T09:28:14.535Z,9.60
2023-04-15T09:30:22.530Z,9.52
2023-04-15T09:32:27.572Z,9.70
2023-04-15T09:34:39.680Z,10.93
2023-04-15T09:37:00.091Z,8.88
2023-04-15T09:39:05.124Z,9.95
2023-04-15T09:41:21.654Z,8.73
2023-04-15T09:43:40.636Z,10.27
2023-04-15T09:45:53.051Z,10.40
2023-04-15T09:47:59.370Z,10.27
2023-04-15T09:50:05.054Z,10.98
2023-04-15T09:52:10.197Z,9.43
2023-04-15T09:54:15.240Z,9.88
2023-04-15T09:56:20.854Z,10.48
2023-04-15T09:58:28.141Z,9.73
2023-04-15T10:00:35.649Z,10.18
2023-04-15T10:02:45.301Z,10.80
2023-04-15T10:04:52.281Z,10.60
2023-04-15T10:06:57.385Z,10.48
2023-04-15T10:09:03.501Z,10.57
2023-04-15T10:11:10.327Z,11.38
2023-04-15T10:13:17.865Z,10.32
2023-04-15T10:15:23.851Z,9.95
2023-04-15T10:17:33.814Z,8.30
2023-04-15T10:19:42.463Z,8.27
2023-04-15T10:21:48.687Z,8.48
2023-04-15T10:23:54.158Z,7.80
2023-04-15T10:26:00.686Z,8.05
2023-04-15T10:28:06.314Z,8.73
2023-04-15T10:30:12.507Z,7.95
2023-04-15T10:32:19.070Z,8.48
2023-04-15T10:34:25.785Z,7.53
2023-04-15T10:36:34.092Z,7.93
2023-04-15T10:38:41.933Z,8.57
2023-04-15T10:40:47.366Z,7.70
2023-04-15T10:42:52.911Z,7.93
2023-04-15T10:45:00.407Z,8.07
2023-04-15T10:47:13.803Z,8.15
2023-04-15T10:49:27.024Z,7.43
2023-04-15T10:53:40.435Z,7.07
2023-04-15T10:55:45.456Z,7.70
2023-04-15T10:57:54.659Z,8.30
2023-04-15T11:00:15.109Z,7.63
2023-04-15T11:02:20.203Z,7.25
2023-04-15T11:04:57.715Z,7.20
2023-04-15T11:07:11.367Z,6.93
2023-04-15T11:09:35.258Z,7.32
2023-04-15T11:12:12.086Z,7.55
2023-04-15T11:14:19.106Z,7.57
2023-04-15T11:16:24.150Z,8.30
2023-04-15T11:18:33.058Z,7.70
2023-04-15T11:20:38.805Z,7.38
2023-04-15T11:23:14.654Z,7.60
2023-04-15T11:25:26.751Z,8.48
2023-04-15T11:27:34.025Z,7.63
2023-04-15T11:29:39.025Z,6.40
2023-04-15T11:31:46.154Z,6.75
2023-04-15T11:33:59.608Z,7.57
2023-04-15T11:38:15.544Z,7.60
2023-04-15T11:40:25.514Z,7.18
2023-04-15T11:42:42.758Z,7.57
2023-04-15T11:44:51.720Z,7.85
2023-04-15T11:46:59.278Z,8.15
2023-04-15T11:49:05.432Z,7.28
2023-04-15T11:51:11.056Z,7.10
2023-04-15T11:53:18.672Z,7.97
2023-04-15T11:55:24.108Z,7.32
2023-04-15T11:57:34.697Z,7.30
2023-04-15T11:59:46.361Z,7.70
2023-04-15T12:01:52.629Z,7.25
2023-04-15T12:04:00.040Z,8.20
2023-04-15T12:06:11.747Z,7.75
2023-04-15T12:08:19.334Z,7.57
2023-04-15T12:10:27.073Z,7.97
2023-04-15T12:12:32.200Z,8.10
2023-04-15T12:14:38.463Z,7.32
2023-04-15T12:16:49.214Z,7.40
2023-04-15T12:18:56.649Z,7.03
2023-04-15T12:21:12.881Z,6.75
2023-04-15T12:23:22.746Z,7.40
2023-04-15T12:25:38.417Z,6.10
2023-04-15T12:27:43.449Z,5.97
2023-04-15T12:29:48.966Z,6.30
2023-04-15T12:31:56.756Z,5.68
2023-04-15T12:34:02.781Z,5.07
2023-04-15T12:36:09.557Z,5.10
2023-04-15T12:38:14.786Z,4.70
2023-04-15T12:40:23.658Z,4.45
2023-04-15T12:42:28.929Z,4.82
2023-04-15T12:44:36.163Z,4.35
2023-04-15T12:46:41.618Z,4.28
2023-04-15T12:48:47.049Z,4.13
2023-04-15T12:50:52.084Z,3.92
2023-04-15T12:52:57.366Z,4.05
2023-04-15T12:55:02.877Z,3.72
2023-04-15T12:57:10.509Z,3.30
2023-04-15T12:59:16.219Z,3.30
2023-04-15T13:01:21.440Z,3.50
2023-04-15T13:03:26.598Z,3.28
2023-04-15T13:05:32.331Z,3.22
2023-04-15T13:07:37.497Z,3.20
2023-04-15T13:09:42.507Z,3.03
2023-04-15T13:11:47.868Z,3.47
2023-04-15T13:13:56.157Z,4.03
2023-04-15T13:16:02.090Z,3.05
2023-04-15T13:18:09.879Z,3.40
2023-04-15T13:20:15.564Z,3.05
2023-04-15T13:22:20.590Z,2.95
2023-04-15T13:24:25.870Z,3.50
2023-04-15T13:26:31.902Z,2.85
2023-04-15T13:28:37.325Z,2.83
2023-04-15T13:30:46.270Z,2.90
2023-04-15T13:32:51.900Z,3.13
2023-04-15T13:34:57.522Z,2.75
2023-04-15T13:37:09.102Z,2.70
2023-04-15T13:39:14.159Z,3.13
2023-04-15T13:41:20.448Z,2.42
2023-04-15T13:43:25.490Z,2.95
2023-04-15T13:45:30.571Z,2.70
2023-04-15T13:47:38.248Z,2.85
2023-04-15T13:49:43.399Z,2.67
2023-04-15T13:51:48.845Z,3.00
2023-04-15T13:53:53.855Z,2.58
2023-04-15T13:55:59.263Z,2.35
2023-04-15T13:58:04.315Z,2.60
2023-04-15T14:00:11.587Z,2.45
2023-04-15T14:02:16.703Z,2.50
2023-04-15T14:04:24.622Z,2.20
2023-04-15T14:06:30.395Z,2.50
2023-04-15T14:08:35.645Z,2.50
2023-04-15T14:10:44.363Z,2.33
2023-04-15T14:12:49.369Z,2.30
2023-04-15T14:14:54.420Z,2.10
2023-04-15T14:17:00.299Z,2.10
2023-04-15T14:19:05.947Z,2.00
2023-04-15T14:21:13.779Z,2.28
2023-04-15T14:23:18.821Z,2.08
2023-04-15T14:25:33.405Z,2.03
2023-04-15T14:27:39.189Z,2.03
2023-04-15T14:29:44.191Z,2.00
2023-04-15T14:32:10.935Z,1.90
2023-04-15T14:34:15.644Z,1.70
2023-04-15T14:36:23.280Z,1.80
2023-04-15T14:38:28.755Z,1.48
2023-04-15T14:40:33.770Z,1.60
2023-04-15T14:42:40.356Z,1.92
2023-04-15T14:44:45.362Z,2.00
2023-04-15T14:46:50.912Z,1.90
2023-04-15T14:48:56.081Z,1.85
2023-04-15T14:51:02.529Z,1.90
2023-04-15T14:53:10.750Z,1.85
2023-04-15T14:55:16.363Z,1.98
2023-04-15T14:57:21.936Z,2.00
2023-04-15T14:59:27.444Z,1.90
2023-04-15T15:01:33.158Z,1.95
2023-04-15T15:03:38.402Z,2.30
2023-04-15T15:05:44.464Z,2.40
2023-04-15T15:07:50.576Z,2.92
2023-04-15T15:09:58.520Z,4.03
2023-04-15T15:12:03.840Z,3.25
2023-04-15T15:14:08.829Z,2.20
2023-04-15T15:16:14.596Z,2.75
2023-04-15T15:18:20.139Z,2.83
2023-04-15T15:20:25.577Z,2.20
2023-04-15T15:22:30.960Z,2.30
2023-04-15T15:24:36.037Z,2.67
2023-04-15T15:26:43.661Z,2.47
2023-04-15T15:28:50.718Z,2.00
2023-04-15T15:30:55.933Z,3.30
2023-04-15T15:33:01.096Z,3.50
2023-04-15T15:35:06.385Z,2.65
2023-04-15T15:37:11.467Z,2.30
2023-04-15T15:39:16.494Z,2.47
2023-04-15T15:41:21.602Z,2.65
2023-04-15T15:43:29.538Z,2.30
2023-04-15T15:45:34.979Z,2.58
2023-04-15T15:47:40.692Z,2.72
2023-04-15T15:49:46.321Z,2.67
2023-04-15T15:51:52.084Z,2.70
2023-04-15T15:53:57.346Z,2.78
2023-04-15T15:56:03.919Z,2.38
2023-04-15T15:58:08.931Z,2.63
2023-04-15T16:00:18.063Z,2.55
2023-04-15T16:02:37.583Z,2.42
2023-04-15T16:04:46.050Z,2.38
2023-04-15T16:06:51.864Z,2.50
2023-04-15T16:08:56.876Z,2.83
2023-04-15T16:11:01.979Z,2.60
2023-04-15T16:13:07.273Z,2.70
2023-04-15T16:15:16.343Z,2.78
2023-04-15T16:17:21.353Z,2.40
2023-04-15T16:19:26.395Z,2.53
2023-04-15T16:21:32.511Z,2.40
2023-04-15T16:23:39.507Z,2.60
2023-04-15T16:25:46.227Z,2.30
2023-04-15T16:28:03.167Z,2.67
2023-04-15T16:30:17.862Z,2.10
2023-04-15T16:32:23.248Z,2.40
2023-04-15T16:34:28.492Z,2.40
2023-04-15T16:36:40.497Z,2.28
2023-04-15T16:38:48.815Z,2.40
2023-04-15T16:40:54.273Z,2.38
2023-04-15T16:42:59.304Z,3.10
2023-04-15T16:45:04.560Z,3.17
2023-04-15T16:47:12.237Z,3.00
2023-04-15T16:49:17.322Z,2.95
2023-04-15T16:51:22.335Z,2.60
2023-04-15T16:53:27.437Z,3.13
2023-04-15T16:55:32.455Z,3.80
2023-04-15T16:58:02.742Z,3.25
2023-04-15T17:00:02.927Z,3.53
2023-04-15T17:02:08.025Z,3.90
2023-04-15T17:04:16.235Z,3.63
2023-04-15T17:06:21.415Z,3.97
2023-04-15T17:08:26.475Z,4.03
2023-04-15T17:10:31.519Z,4.18
2023-04-15T17:12:36.551Z,4.38
2023-04-15T17:14:41.570Z,5.00
2023-04-15T17:16:46.754Z,4.28
2023-04-15T17:18:52.258Z,4.38
2023-04-15T17:20:59.932Z,4.43
2023-04-15T17:23:04.954Z,4.65
2023-04-15T17:25:11.328Z,4.32
2023-04-15T17:27:16.499Z,4.50
2023-04-15T17:29:21.558Z,4.38
2023-04-15T17:31:26.619Z,4.70
2023-04-15T17:34:00.208Z,5.40
2023-04-15T17:36:00.819Z,5.50
2023-04-15T17:38:05.814Z,5.43
2023-04-15T17:40:12.990Z,5.45
2023-04-15T17:42:18.213Z,5.80
2023-04-15T17:44:25.190Z,5.82
2023-04-15T17:46:30.884Z,5.63
2023-04-15T17:48:36.564Z,5.85
2023-04-15T17:50:41.750Z,6.13
2023-04-15T17:52:50.459Z,6.05
2023-04-15T17:54:56.225Z,6.75
2023-04-15T17:57:01.522Z,5.63
2023-04-15T17:59:07.112Z,5.72
2023-04-15T18:01:12.163Z,5.65
2023-04-15T18:03:17.821Z,7.22
2023-04-15T18:05:23.225Z,6.35
2023-04-15T18:07:28.247Z,6.03
2023-04-15T18:09:36.362Z,6.43
2023-04-15T18:11:44.014Z,6.75
2023-04-15T18:13:49.003Z,6.20
2023-04-15T18:15:54.726Z,5.85
2023-04-15T18:17:59.886Z,5.85
2023-04-15T18:20:05.262Z,6.78
2023-04-15T18:22:10.467Z,6.45
2023-04-15T18:24:16.208Z,5.60
2023-04-15T18:26:24.413Z,5.43
2023-04-15T18:28:29.687Z,6.05
2023-04-15T18:30:34.828Z,6.13
2023-04-15T18:32:40.085Z,6.57
2023-04-15T18:34:45.587Z,5.93
2023-04-15T18:36:50.931Z,6.50
2023-04-15T18:38:55.986Z,7.85
2023-04-15T18:41:01.015Z,8.32
2023-04-15T18:43:09.555Z,8.02
2023-04-15T18:45:14.907Z,7.63
2023-04-15T18:47:20.325Z,5.88
2023-04-15T18:49:27.300Z,5.40
2023-04-15T18:51:32.720Z,6.05
2023-04-15T18:53:37.739Z,5.95
2023-04-15T18:55:43.114Z,6.47
2023-04-15T18:57:48.385Z,7.50
2023-04-15T18:59:57.144Z,8.45
2023-04-15T19:04:12.215Z,8.10
2023-04-15T19:06:17.247Z,7.72
2023-04-15T19:08:22.355Z,6.72
2023-04-15T19:10:28.432Z,6.93
2023-04-15T19:12:33.472Z,7.10
2023-04-15T19:14:38.485Z,7.32
2023-04-15T19:16:46.263Z,5.95
2023-04-15T19:18:51.373Z,6.85
2023-04-15T19:20:56.535Z,6.40
2023-04-15T19:23:01.563Z,6.90
2023-04-15T19:25:08.111Z,6.65
2023-04-15T19:27:13.444Z,6.65
2023-04-15T19:29:18.480Z,6.88
2023-04-15T19:31:23.593Z,7.38
2023-04-15T19:33:31.648Z,8.20
2023-04-15T19:35:38.397Z,8.05
2023-04-15T19:37:43.743Z,8.38
2023-04-15T19:39:48.750Z,9.10
2023-04-15T19:41:55.445Z,10.05
2023-04-15T19:44:00.625Z,8.60
2023-04-15T19:46:05.750Z,8.63
2023-04-15T19:48:10.907Z,7.68
2023-04-15T19:50:21.402Z,10.18
2023-04-15T19:52:26.436Z,9.20
2023-04-15T19:54:32.351Z,9.98
2023-04-15T19:56:37.732Z,9.93
2023-04-15T19:58:42.733Z,9.05
2023-04-15T20:00:47.759Z,8.48
2023-04-15T20:02:53.000Z,8.20
2023-04-15T20:04:58.087Z,9.20
2023-04-15T20:07:05.847Z,8.68
2023-04-15T20:09:11.524Z,8.82
2023-04-15T20:11:17.454Z,8.35
2023-04-15T20:13:22.459Z,9.02
2023-04-15T20:15:27.490Z,9.57
2023-04-15T20:17:35.878Z,9.23
2023-04-15T20:19:40.938Z,9.48
2023-04-15T20:21:46.097Z,11.02
2023-04-15T20:23:53.676Z,11.38
2023-04-15T20:25:58.665Z,12.50
2023-04-15T20:28:03.773Z,13.82
2023-04-15T20:30:11.115Z,13.85
2023-04-15T20:32:16.106Z,14.32
2023-04-15T20:34:21.218Z,14.77
2023-04-15T20:36:26.702Z,20.00
2023-04-15T20:38:31.801Z,16.60
2023-04-15T20:40:41.541Z,15.05
2023-04-15T20:42:47.465Z,14.70
2023-04-15T20:44:52.515Z,15.60
2023-04-15T20:46:57.812Z,16.83
2023-04-15T20:49:04.140Z,16.73
2023-04-15T20:51:09.258Z,18.52
2023-04-15T20:53:14.557Z,17.50
2023-04-15T20:55:19.743Z,19.85
2023-04-15T20:57:28.890Z,20.13
2023-04-15T20:59:34.965Z,19.98
2023-04-15T21:01:40.383Z,21.13
2023-04-15T21:03:45.681Z,21.45
2023-04-15T21:05:51.371Z,20.10
2023-04-15T21:07:56.885Z,23.50
2023-04-15T21:10:02.059Z,22.42
2023-04-15T21:12:07.137Z,23.65
2023-04-15T21:14:14.730Z,23.52
2023-04-15T21:16:19.842Z,23.88
2023-04-15T21:18:25.758Z,23.38
2023-04-15T21:20:30.767Z,21.58
2023-04-15T21:22:36.042Z,24.02
2023-04-15T21:24:41.066Z,23.35
2023-04-15T21:26:46.043Z,22.80
2023-04-15T21:28:51.334Z,22.13
2023-04-15T21:30:59.368Z,22.10
2023-04-15T21:33:04.382Z,22.17
2023-04-15T21:35:11.455Z,22.73
2023-04-15T21:37:16.461Z,21.08
2023-04-15T21:39:21.683Z,20.95
2023-04-15T21:41:26.939Z,22.63
2023-04-15T21:43:32.085Z,22.17
2023-04-15T21:45:39.479Z,21.58
2023-04-15T21:47:59.760Z,21.50
2023-04-15T21:50:13.655Z,19.60
2023-04-15T21:52:18.712Z,21.17
2023-04-15T21:54:23.732Z,20.05
2023-04-15T21:56:28.868Z,20.25
2023-04-15T21:58:33.937Z,20.15
2023-04-15T22:00:40.805Z,19.33
2023-04-15T22:02:48.609Z,18.50
2023-04-15T22:04:53.658Z,18.17
2023-04-15T22:07:01.791Z,16.55
2023-04-15T22:09:06.964Z,18.25
2023-04-15T22:11:12.612Z,15.15
2023-04-15T22:13:17.637Z,16.23
2023-04-15T22:15:22.618Z,16.00
2023-04-15T22:17:28.317Z,16.35
2023-04-15T22:19:35.976Z,14.80
2023-04-15T22:21:41.020Z,15.75
2023-04-15T22:23:50.185Z,15.98
2023-04-15T22:25:55.211Z,16.67
2023-04-15T22:28:00.188Z,15.55
2023-04-15T22:30:05.462Z,16.10
2023-04-15T22:32:10.655Z,15.85
2023-04-15T22:34:21.593Z,15.50
2023-04-15T22:36:31.281Z,17.00
2023-04-15T22:38:36.584Z,15.70
2023-04-15T22:40:41.699Z,16.00
2023-04-15T22:42:48.016Z,16.35
2023-04-15T22:44:53.715Z,15.35
2023-04-15T22:46:58.709Z,15.90
2023-04-15T22:49:04.770Z,16.63
2023-04-15T22:51:09.863Z,17.60
2023-04-15T22:53:19.403Z,16.08
2023-04-15T22:55:24.496Z,16.23
2023-04-15T22:57:30.883Z,15.88
2023-04-15T22:59:36.115Z,16.33
2023-04-15T23:01:41.251Z,15.88
2023-04-15T23:03:57.541Z,16.50
2023-04-15T23:06:11.534Z,17.25
2023-04-15T23:08:19.335Z,17.15
2023-04-15T23:10:24.614Z,17.85
2023-04-15T23:12:29.707Z,17.52
2023-04-15T23:14:35.304Z,18.50
2023-04-15T23:16:40.465Z,17.85
2023-04-15T23:18:45.652Z,20.40
2023-04-15T23:20:50.968Z,20.48
2023-04-15T23:22:56.047Z,20.83
2023-04-15T23:25:03.707Z,20.10
2023-04-15T23:27:08.706Z,20.70
2023-04-15T23:29:14.249Z,20.58
2023-04-15T23:31:19.552Z,20.98
2023-04-15T23:33:24.594Z,24.17
2023-04-15T23:35:30.550Z,21.85
2023-04-15T23:37:35.700Z,23.70
2023-04-15T23:39:40.692Z,25.02
2023-04-15T23:41:48.504Z,27.00
2023-04-15T23:43:53.632Z,27.55
2023-04-15T23:45:58.659Z,26.55
2023-04-15T23:48:03.721Z,28.33
2023-04-15T23:50:11.441Z,29.40
2023-04-15T23:52:16.465Z,30.10
2023-04-15T23:54:21.468Z,32.40
2023-04-15T23:56:26.992Z,32.92
2023-04-15T23:58:34.733Z,32.63
